Grand Junction, CO

6:57 PM MST on November 25, 2014 (GMT -0700)
Delta | Change Station
CLOSE
Current Station
Airport
Location: Delta,
Elevation: 5194 ft
Nearby Weather Stations

Elev 5194 ft 38.79 °N, 108.07 °W | Updated 22 minutes ago

Mostly Cloudy
Mostly Cloudy
38 °F
Feels Like 33 °F
N
7
Wind Variable Wind from ENE

Today
High -- | Low -- °F
--% Chance of Precip.
Yesterday
High -- | Low -- °F
Precip. -- in
7:08 AM 4:53 PM
Waxing Crescent, 15% visible
Pressure 30.31 in
Visibility 10.0 miles
Clouds Overcast 7000 ft
Windchill 33 °F
Dew Point 21 °F
Humidity 51%
Rainfall 0.00 in
Snow Depth Not available.
UV 0 out of 12
Pollen .10 out of 12
Air Quality Not available.
Flu Activity Not available.
METAR KAJZ 260135Z AUTO 06006KT 10SM OVC070 03/M06 A3031 RMK AO2 T00331059

More Conditions Fewer Conditions

Pressure 30.31 in
Visibility 10.0 miles
Clouds Overcast 7000 ft
Windchill 33 °F
Dew Point 21 °F
Humidity 51%
Rainfall 0.00 in
Snow Depth Not available.
UV 0 out of 12
Pollen .10 out of 12
Air Quality Not available.
Flu Activity Not available.
METAR KAJZ 260135Z AUTO 06006KT 10SM OVC070 03/M06 A3031 RMK AO2 T00331059

More Conditions Fewer Conditions

10-Day Weather Forecast

Almanac

Astronomy

Nov. 25, 2014 Rise Set
Actual Time
Civil Twilight
Nautical Twilight
Astronomical Twilight
Moon
Length of Visible Light
Length of Day
Tomorrow will be .
, % of the Moon is Illuminated

Today's Extremes

State Highs State Lows

Community

WunderPhotos

Upload Photos

1,773,634 photos uploaded!

WunderBlogs® & News

Nearby

Air Quality

  Air Quality AQ Index Pollutant
Not available.

Snow Depth

Station Depth Elevation

Earthquake Activity

City Distance Mag. Time & Date
Minimum magnitude displayed is 2.5.

Coastal Water Temperatures

Place Temperature

Nearby Weather Stations